sensor_id;sensor_type;location;lat;lon;timestamp;pressure;altitude;pressure_sealevel;temperature;humidity
71573;BME280;59408;51.032;9.410;2022-09-09T00:02:18;98469.91;;;12.37;99.54
71573;BME280;59408;51.032;9.410;2022-09-09T00:04:54;98464.00;;;12.35;99.12
71573;BME280;59408;51.032;9.410;2022-09-09T00:07:32;98469.03;;;12.33;98.83
71573;BME280;59408;51.032;9.410;2022-09-09T00:10:14;98467.09;;;12.33;98.38
71573;BME280;59408;51.032;9.410;2022-09-09T00:12:47;98467.88;;;12.34;97.87
71573;BME280;59408;51.032;9.410;2022-09-09T00:15:19;98459.66;;;12.34;99.01
71573;BME280;59408;51.032;9.410;2022-09-09T00:17:52;98458.53;;;12.35;98.89
71573;BME280;59408;51.032;9.410;2022-09-09T00:20:22;98465.22;;;12.37;99.56
71573;BME280;59408;51.032;9.410;2022-09-09T00:22:54;98457.81;;;12.38;99.15
71573;BME280;59408;51.032;9.410;2022-09-09T00:25:28;98469.22;;;12.43;98.86
71573;BME280;59408;51.032;9.410;2022-09-09T00:27:58;98452.38;;;12.41;99.55
71573;BME280;59408;51.032;9.410;2022-09-09T00:30:26;98456.69;;;12.42;98.89
71573;BME280;59408;51.032;9.410;2022-09-09T00:32:59;98448.97;;;12.48;97.77
71573;BME280;59408;51.032;9.410;2022-09-09T00:35:29;98452.91;;;12.51;98.02
71573;BME280;59408;51.032;9.410;2022-09-09T00:38:01;98451.75;;;12.52;97.59
71573;BME280;59408;51.032;9.410;2022-09-09T00:40:32;98447.16;;;12.56;98.97
71573;BME280;59408;51.032;9.410;2022-09-09T00:43:10;98446.38;;;12.55;98.97
71573;BME280;59408;51.032;9.410;2022-09-09T00:45:55;98451.09;;;12.58;98.51
71573;BME280;59408;51.032;9.410;2022-09-09T00:48:32;98447.25;;;12.63;99.84
71573;BME280;59408;51.032;9.410;2022-09-09T00:51:06;98449.22;;;12.62;99.19
71573;BME280;59408;51.032;9.410;2022-09-09T00:53:41;98449.63;;;12.64;98.67
71573;BME280;59408;51.032;9.410;2022-09-09T00:56:13;98458.69;;;12.68;97.59
71573;BME280;59408;51.032;9.410;2022-09-09T00:58:42;98453.28;;;12.72;97.77
71573;BME280;59408;51.032;9.410;2022-09-09T01:01:10;98457.63;;;12.76;97.64
71573;BME280;59408;51.032;9.410;2022-09-09T01:03:43;98467.97;;;12.86;96.22
71573;BME280;59408;51.032;9.410;2022-09-09T01:06:16;98474.81;;;13.00;96.81
71573;BME280;59408;51.032;9.410;2022-09-09T01:09:13;98473.66;;;13.01;97.04
71573;BME280;59408;51.032;9.410;2022-09-09T01:11:51;98474.81;;;13.00;96.92
71573;BME280;59408;51.032;9.410;2022-09-09T01:14:35;98463.69;;;13.15;93.95
71573;BME280;59408;51.032;9.410;2022-09-09T01:17:09;98467.00;;;13.28;92.69
71573;BME280;59408;51.032;9.410;2022-09-09T01:19:52;98469.06;;;13.35;92.79
71573;BME280;59408;51.032;9.410;2022-09-09T01:22:28;98466.25;;;13.31;93.72
71573;BME280;59408;51.032;9.410;2022-09-09T01:25:26;98468.22;;;13.31;93.12
71573;BME280;59408;51.032;9.410;2022-09-09T01:27:56;98463.63;;;13.38;92.41
71573;BME280;59408;51.032;9.410;2022-09-09T01:30:25;98463.75;;;13.45;91.22
71573;BME280;59408;51.032;9.410;2022-09-09T01:32:54;98467.22;;;13.42;92.79
71573;BME280;59408;51.032;9.410;2022-09-09T01:35:29;98459.63;;;13.32;92.61
71573;BME280;59408;51.032;9.410;2022-09-09T01:37:58;98455.31;;;13.31;92.53
71573;BME280;59408;51.032;9.410;2022-09-09T01:40:25;98463.94;;;13.33;93.61
71573;BME280;59408;51.032;9.410;2022-09-09T01:42:53;98461.13;;;13.26;92.88
71573;BME280;59408;51.032;9.410;2022-09-09T01:45:21;98458.75;;;13.24;93.50
71573;BME280;59408;51.032;9.410;2022-09-09T01:47:48;98460.69;;;13.24;92.73
71573;BME280;59408;51.032;9.410;2022-09-09T01:50:16;98456.34;;;13.19;93.42
71573;BME280;59408;51.032;9.410;2022-09-09T01:52:44;98458.13;;;13.08;94.07
71573;BME280;59408;51.032;9.410;2022-09-09T01:55:13;98461.97;;;13.04;93.95
71573;BME280;59408;51.032;9.410;2022-09-09T01:57:45;98466.53;;;13.22;93.05
71573;BME280;59408;51.032;9.410;2022-09-09T02:00:15;98469.41;;;13.33;91.89
71573;BME280;59408;51.032;9.410;2022-09-09T02:02:49;98464.47;;;13.42;91.24
71573;BME280;59408;51.032;9.410;2022-09-09T02:05:28;98475.53;;;13.49;90.78
71573;BME280;59408;51.032;9.410;2022-09-09T02:08:02;98473.22;;;13.51;91.29
71573;BME280;59408;51.032;9.410;2022-09-09T02:10:32;98477.47;;;13.49;91.30
71573;BME280;59408;51.032;9.410;2022-09-09T02:13:02;98474.28;;;13.43;92.16
71573;BME280;59408;51.032;9.410;2022-09-09T02:15:34;98471.22;;;13.48;90.72
71573;BME280;59408;51.032;9.410;2022-09-09T02:18:06;98479.53;;;13.55;90.60
71573;BME280;59408;51.032;9.410;2022-09-09T02:20:36;98473.31;;;13.58;90.42
71573;BME280;59408;51.032;9.410;2022-09-09T02:23:05;98478.78;;;13.58;90.10
71573;BME280;59408;51.032;9.410;2022-09-09T02:25:33;98484.22;;;13.55;90.01
71573;BME280;59408;51.032;9.410;2022-09-09T02:28:05;98478.31;;;13.53;90.44
71573;BME280;59408;51.032;9.410;2022-09-09T02:30:34;98481.81;;;13.50;90.64
71573;BME280;59408;51.032;9.410;2022-09-09T02:33:03;98484.88;;;13.45;90.72
71573;BME280;59408;51.032;9.410;2022-09-09T02:35:32;98484.03;;;13.41;91.88
71573;BME280;59408;51.032;9.410;2022-09-09T02:38:04;98484.69;;;13.34;93.18
71573;BME280;59408;51.032;9.410;2022-09-09T02:40:32;98485.44;;;13.31;92.59
71573;BME280;59408;51.032;9.410;2022-09-09T02:42:59;98489.28;;;13.27;92.99
71573;BME280;59408;51.032;9.410;2022-09-09T02:45:31;98484.91;;;13.22;92.86
71573;BME280;59408;51.032;9.410;2022-09-09T02:48:07;98484.13;;;13.21;93.59
71573;BME280;59408;51.032;9.410;2022-09-09T02:50:41;98484.88;;;13.18;93.11
71573;BME280;59408;51.032;9.410;2022-09-09T02:53:16;98477.03;;;13.17;93.25
71573;BME280;59408;51.032;9.410;2022-09-09T02:55:47;98486.81;;;13.18;93.51
71573;BME280;59408;51.032;9.410;2022-09-09T02:58:16;98477.75;;;13.14;93.76
71573;BME280;59408;51.032;9.410;2022-09-09T03:00:45;98478.88;;;13.09;94.96
71573;BME280;59408;51.032;9.410;2022-09-09T03:03:12;98475.25;;;13.02;94.17
71573;BME280;59408;51.032;9.410;2022-09-09T03:05:40;98487.28;;;12.97;94.41
71573;BME280;59408;51.032;9.410;2022-09-09T03:08:09;98487.66;;;12.96;95.19
71573;BME280;59408;51.032;9.410;2022-09-09T03:10:36;98488.81;;;12.95;96.52
71573;BME280;59408;51.032;9.410;2022-09-09T03:13:03;98482.13;;;12.92;95.96
71573;BME280;59408;51.032;9.410;2022-09-09T03:15:29;98481.34;;;12.92;95.40
71573;BME280;59408;51.032;9.410;2022-09-09T03:17:56;98472.34;;;12.91;96.25
71573;BME280;59408;51.032;9.410;2022-09-09T03:20:23;98473.13;;;12.92;95.11
71573;BME280;59408;51.032;9.410;2022-09-09T03:22:51;98479.41;;;12.92;95.72
71573;BME280;59408;51.032;9.410;2022-09-09T03:25:17;98474.72;;;12.93;95.40
71573;BME280;59408;51.032;9.410;2022-09-09T03:27:44;98475.88;;;12.92;95.91
71573;BME280;59408;51.032;9.410;2022-09-09T03:30:11;98483.59;;;12.86;96.83
71573;BME280;59408;51.032;9.410;2022-09-09T03:32:37;98481.91;;;12.78;95.85
71573;BME280;59408;51.032;9.410;2022-09-09T03:35:04;98476.75;;;12.73;95.91
71573;BME280;59408;51.032;9.410;2022-09-09T03:37:31;98475.88;;;12.69;95.66
71573;BME280;59408;51.032;9.410;2022-09-09T03:39:59;98478.19;;;12.67;95.35
71573;BME280;59408;51.032;9.410;2022-09-09T03:42:26;98469.88;;;12.60;96.02
71573;BME280;59408;51.032;9.410;2022-09-09T03:44:52;98471.72;;;12.52;97.21
71573;BME280;59408;51.032;9.410;2022-09-09T03:47:20;98460.34;;;12.50;97.09
71573;BME280;59408;51.032;9.410;2022-09-09T03:49:47;98464.53;;;12.44;97.41
71573;BME280;59408;51.032;9.410;2022-09-09T03:52:14;98466.78;;;12.38;97.55
71573;BME280;59408;51.032;9.410;2022-09-09T03:54:44;98458.09;;;12.33;97.12
71573;BME280;59408;51.032;9.410;2022-09-09T03:57:12;98461.94;;;12.28;97.18
71573;BME280;59408;51.032;9.410;2022-09-09T03:59:39;98456.88;;;12.30;97.17
71573;BME280;59408;51.032;9.410;2022-09-09T04:02:05;98458.28;;;12.43;96.49
71573;BME280;59408;51.032;9.410;2022-09-09T04:04:32;98457.47;;;12.43;96.58
71573;BME280;59408;51.032;9.410;2022-09-09T04:06:58;98461.00;;;12.43;96.59
71573;BME280;59408;51.032;9.410;2022-09-09T04:09:25;98451.94;;;12.39;96.94
71573;BME280;59408;51.032;9.410;2022-09-09T04:11:52;98455.09;;;12.41;97.21
71573;BME280;59408;51.032;9.410;2022-09-09T04:14:20;98460.03;;;12.32;97.65
71573;BME280;59408;51.032;9.410;2022-09-09T04:16:47;98455.28;;;12.29;97.53
71573;BME280;59408;51.032;9.410;2022-09-09T04:19:13;98460.28;;;12.24;98.10
71573;BME280;59408;51.032;9.410;2022-09-09T04:21:40;98450.78;;;12.18;98.42
71573;BME280;59408;51.032;9.410;2022-09-09T04:24:08;98442.63;;;12.21;97.40
71573;BME280;59408;51.032;9.410;2022-09-09T04:26:35;98447.56;;;12.35;97.28
71573;BME280;59408;51.032;9.410;2022-09-09T04:29:02;98438.16;;;12.32;97.37
71573;BME280;59408;51.032;9.410;2022-09-09T04:31:30;98446.34;;;12.32;97.58
71573;BME280;59408;51.032;9.410;2022-09-09T04:33:57;98446.28;;;12.52;95.89
71573;BME280;59408;51.032;9.410;2022-09-09T04:36:23;98449.28;;;12.43;97.08
71573;BME280;59408;51.032;9.410;2022-09-09T04:38:50;98454.19;;;12.34;97.47
71573;BME280;59408;51.032;9.410;2022-09-09T04:41:17;98457.53;;;12.24;97.77
71573;BME280;59408;51.032;9.410;2022-09-09T04:43:43;98463.25;;;12.15;99.00
71573;BME280;59408;51.032;9.410;2022-09-09T04:46:10;98454.81;;;12.04;99.54
71573;BME280;59408;51.032;9.410;2022-09-09T04:48:38;98453.09;;;11.96;99.04
71573;BME280;59408;51.032;9.410;2022-09-09T04:51:05;98458.44;;;11.89;99.09
71573;BME280;59408;51.032;9.410;2022-09-09T04:53:32;98463.81;;;11.86;99.84
71573;BME280;59408;51.032;9.410;2022-09-09T04:56:03;98457.06;;;11.80;100.00
71573;BME280;59408;51.032;9.410;2022-09-09T04:58:30;98462.09;;;11.78;100.00
71573;BME280;59408;51.032;9.410;2022-09-09T05:01:04;98464.97;;;11.85;100.00
71573;BME280;59408;51.032;9.410;2022-09-09T05:03:31;98451.69;;;11.83;100.00
71573;BME280;59408;51.032;9.410;2022-09-09T05:06:04;98451.25;;;11.81;100.00
71573;BME280;59408;51.032;9.410;2022-09-09T05:08:30;98451.63;;;11.80;100.00
71573;BME280;59408;51.032;9.410;2022-09-09T05:10:57;98459.47;;;11.81;100.00
71573;BME280;59408;51.032;9.410;2022-09-09T05:13:24;98460.59;;;11.80;100.00
71573;BME280;59408;51.032;9.410;2022-09-09T05:15:51;98463.91;;;11.89;100.00
71573;BME280;59408;51.032;9.410;2022-09-09T05:18:18;98459.22;;;11.90;100.00
71573;BME280;59408;51.032;9.410;2022-09-09T05:20:45;98461.97;;;11.90;100.00
71573;BME280;59408;51.032;9.410;2022-09-09T05:23:13;98470.16;;;11.90;100.00
71573;BME280;59408;51.032;9.410;2022-09-09T05:25:39;98467.88;;;11.92;100.00
71573;BME280;59408;51.032;9.410;2022-09-09T05:28:06;98474.53;;;11.94;100.00
71573;BME280;59408;51.032;9.410;2022-09-09T05:30:33;98468.44;;;12.01;100.00
71573;BME280;59408;51.032;9.410;2022-09-09T05:32:59;98465.47;;;12.09;100.00
71573;BME280;59408;51.032;9.410;2022-09-09T05:35:26;98472.06;;;12.28;100.00
71573;BME280;59408;51.032;9.410;2022-09-09T05:37:53;98475.03;;;12.42;99.15
71573;BME280;59408;51.032;9.410;2022-09-09T05:40:21;98482.66;;;12.52;98.40
71573;BME280;59408;51.032;9.410;2022-09-09T05:42:48;98489.75;;;12.57;98.36
71573;BME280;59408;51.032;9.410;2022-09-09T05:45:14;98488.66;;;12.61;97.87
71573;BME280;59408;51.032;9.410;2022-09-09T05:47:41;98486.41;;;12.67;98.00
71573;BME280;59408;51.032;9.410;2022-09-09T05:50:08;98485.84;;;12.80;97.04
71573;BME280;59408;51.032;9.410;2022-09-09T05:52:34;98497.50;;;13.00;95.70
71573;BME280;59408;51.032;9.410;2022-09-09T05:55:01;98502.09;;;13.19;94.14
71573;BME280;59408;51.032;9.410;2022-09-09T05:57:29;98499.97;;;13.35;93.29
71573;BME280;59408;51.032;9.410;2022-09-09T05:59:55;98503.63;;;13.43;93.30
71573;BME280;59408;51.032;9.410;2022-09-09T06:02:22;98504.59;;;13.57;91.89
71573;BME280;59408;51.032;9.410;2022-09-09T06:04:49;98508.19;;;13.62;92.21
71573;BME280;59408;51.032;9.410;2022-09-09T06:07:15;98509.13;;;13.73;91.15
71573;BME280;59408;51.032;9.410;2022-09-09T06:09:42;98506.91;;;13.82;91.06
71573;BME280;59408;51.032;9.410;2022-09-09T06:12:08;98503.88;;;13.94;90.41
71573;BME280;59408;51.032;9.410;2022-09-09T06:14:36;98501.28;;;14.05;89.75
71573;BME280;59408;51.032;9.410;2022-09-09T06:17:03;98506.22;;;14.25;89.54
71573;BME280;59408;51.032;9.410;2022-09-09T06:19:30;98503.34;;;14.52;88.74
71573;BME280;59408;51.032;9.410;2022-09-09T06:21:57;98492.16;;;14.71;88.15
71573;BME280;59408;51.032;9.410;2022-09-09T06:24:23;98482.84;;;14.83;85.89
71573;BME280;59408;51.032;9.410;2022-09-09T06:26:50;98486.88;;;14.96;87.28
71573;BME280;59408;51.032;9.410;2022-09-09T06:29:16;98495.56;;;15.01;86.29
71573;BME280;59408;51.032;9.410;2022-09-09T06:31:45;98494.44;;;15.09;85.48
71573;BME280;59408;51.032;9.410;2022-09-09T06:34:11;98485.84;;;15.22;83.90
71573;BME280;59408;51.032;9.410;2022-09-09T06:36:38;98500.09;;;15.34;83.79
71573;BME280;59408;51.032;9.410;2022-09-09T06:39:05;98508.78;;;15.43;84.30
71573;BME280;59408;51.032;9.410;2022-09-09T06:41:39;98498.53;;;15.40;83.75
71573;BME280;59408;51.032;9.410;2022-09-09T06:44:05;98497.38;;;15.41;83.47
71573;BME280;59408;51.032;9.410;2022-09-09T06:46:32;98489.53;;;15.43;83.23
71573;BME280;59408;51.032;9.410;2022-09-09T06:49:00;98493.88;;;15.48;83.72
71573;BME280;59408;51.032;9.410;2022-09-09T06:51:28;98491.91;;;15.48;83.32
71573;BME280;59408;51.032;9.410;2022-09-09T06:53:57;98498.22;;;15.53;82.86
71573;BME280;59408;51.032;9.410;2022-09-09T06:56:25;98507.66;;;15.55;82.18
71573;BME280;59408;51.032;9.410;2022-09-09T06:58:53;98517.09;;;15.54;82.38
71573;BME280;59408;51.032;9.410;2022-09-09T07:01:20;98513.56;;;15.54;82.16
71573;BME280;59408;51.032;9.410;2022-09-09T07:03:49;98519.09;;;15.61;82.59
71573;BME280;59408;51.032;9.410;2022-09-09T07:06:19;98510.50;;;15.69;82.01
71573;BME280;59408;51.032;9.410;2022-09-09T07:08:50;98524.72;;;15.86;82.21
71573;BME280;59408;51.032;9.410;2022-09-09T07:11:24;98515.31;;;15.90;80.46
71573;BME280;59408;51.032;9.410;2022-09-09T07:13:50;98530.69;;;15.98;80.79
71573;BME280;59408;51.032;9.410;2022-09-09T07:16:19;98535.75;;;15.89;80.96
71573;BME280;59408;51.032;9.410;2022-09-09T07:18:46;98529.06;;;15.83;81.47
71573;BME280;59408;51.032;9.410;2022-09-09T07:21:14;98529.03;;;15.79;81.33
71573;BME280;59408;51.032;9.410;2022-09-09T07:23:42;98534.09;;;15.70;80.99
71573;BME280;59408;51.032;9.410;2022-09-09T07:26:10;98540.34;;;15.67;82.02
71573;BME280;59408;51.032;9.410;2022-09-09T07:28:37;98530.13;;;15.64;81.32
71573;BME280;59408;51.032;9.410;2022-09-09T07:31:05;98538.69;;;15.59;82.31
71573;BME280;59408;51.032;9.410;2022-09-09T07:33:33;98541.84;;;15.58;83.30
71573;BME280;59408;51.032;9.410;2022-09-09T07:36:06;98542.59;;;15.51;82.66
71573;BME280;59408;51.032;9.410;2022-09-09T07:38:37;98550.78;;;15.44;82.60
71573;BME280;59408;51.032;9.410;2022-09-09T07:41:06;98550.38;;;15.38;83.14
71573;BME280;59408;51.032;9.410;2022-09-09T07:43:33;98540.88;;;15.32;83.35
71573;BME280;59408;51.032;9.410;2022-09-09T07:46:00;98545.59;;;15.28;84.13
71573;BME280;59408;51.032;9.410;2022-09-09T07:48:27;98549.47;;;15.24;83.94
71573;BME280;59408;51.032;9.410;2022-09-09T07:51:03;98555.78;;;15.28;84.15
71573;BME280;59408;51.032;9.410;2022-09-09T07:53:30;98557.75;;;15.27;83.75
71573;BME280;59408;51.032;9.410;2022-09-09T07:56:02;98567.56;;;15.28;83.51
71573;BME280;59408;51.032;9.410;2022-09-09T07:58:30;98555.81;;;15.31;83.81
71573;BME280;59408;51.032;9.410;2022-09-09T08:01:08;98559.00;;;15.37;83.81
71573;BME280;59408;51.032;9.410;2022-09-09T08:03:35;98557.03;;;15.41;83.75
71573;BME280;59408;51.032;9.410;2022-09-09T08:06:03;98566.91;;;15.49;82.89
71573;BME280;59408;51.032;9.410;2022-09-09T08:08:29;98562.28;;;15.60;82.46
71573;BME280;59408;51.032;9.410;2022-09-09T08:11:07;98560.88;;;15.84;81.26
71573;BME280;59408;51.032;9.410;2022-09-09T08:13:36;98560.59;;;16.07;81.44
71573;BME280;59408;51.032;9.410;2022-09-09T08:16:05;98554.69;;;16.08;80.72
71573;BME280;59408;51.032;9.410;2022-09-09T08:18:32;98563.34;;;16.07;80.93
71573;BME280;59408;51.032;9.410;2022-09-09T08:21:05;98556.66;;;16.08;81.66
71573;BME280;59408;51.032;9.410;2022-09-09T08:23:31;98566.53;;;16.16;79.46
71573;BME280;59408;51.032;9.410;2022-09-09T08:26:03;98566.59;;;16.41;79.06
71573;BME280;59408;51.032;9.410;2022-09-09T08:28:30;98561.19;;;16.69;79.09
71573;BME280;59408;51.032;9.410;2022-09-09T08:31:05;98565.16;;;16.89;78.78
71573;BME280;59408;51.032;9.410;2022-09-09T08:33:32;98558.06;;;17.13;75.86
71573;BME280;59408;51.032;9.410;2022-09-09T08:35:58;98563.97;;;17.40;75.28
71573;BME280;59408;51.032;9.410;2022-09-09T08:38:25;98570.63;;;17.78;74.41
71573;BME280;59408;51.032;9.410;2022-09-09T08:40:53;98563.47;;;18.02;72.14
71573;BME280;59408;51.032;9.410;2022-09-09T08:43:24;98562.72;;;17.91;71.41
71573;BME280;59408;51.032;9.410;2022-09-09T08:45:58;98570.53;;;18.06;73.05
71573;BME280;59408;51.032;9.410;2022-09-09T08:48:43;98562.63;;;18.16;72.68
71573;BME280;59408;51.032;9.410;2022-09-09T08:51:13;98561.00;;;18.29;71.53
71573;BME280;59408;51.032;9.410;2022-09-09T08:53:43;98564.84;;;18.53;70.29
71573;BME280;59408;51.032;9.410;2022-09-09T08:56:13;98555.72;;;18.59;69.26
71573;BME280;59408;51.032;9.410;2022-09-09T08:58:45;98564.28;;;18.79;67.97
71573;BME280;59408;51.032;9.410;2022-09-09T09:01:40;98561.03;;;18.91;67.29
71573;BME280;59408;51.032;9.410;2022-09-09T09:04:22;98561.03;;;19.43;67.90
71573;BME280;59408;51.032;9.410;2022-09-09T09:07:01;98573.25;;;19.45;66.26
71573;BME280;59408;51.032;9.410;2022-09-09T09:09:36;98568.47;;;19.49;66.52
71573;BME280;59408;51.032;9.410;2022-09-09T09:12:15;98561.63;;;19.13;66.58
71573;BME280;59408;51.032;9.410;2022-09-09T09:14:43;98573.69;;;18.85;67.15
71573;BME280;59408;51.032;9.410;2022-09-09T09:17:14;98565.22;;;18.55;68.63
71573;BME280;59408;51.032;9.410;2022-09-09T09:19:43;98575.28;;;18.02;70.32
71573;BME280;59408;51.032;9.410;2022-09-09T09:22:17;98574.34;;;18.37;70.15
71573;BME280;59408;51.032;9.410;2022-09-09T09:24:50;98567.16;;;18.61;70.03
71573;BME280;59408;51.032;9.410;2022-09-09T09:27:25;98570.91;;;18.92;69.64
71573;BME280;59408;51.032;9.410;2022-09-09T09:29:54;98565.06;;;19.35;67.34
71573;BME280;59408;51.032;9.410;2022-09-09T09:32:55;98570.97;;;19.37;65.45
71573;BME280;59408;51.032;9.410;2022-09-09T09:35:23;98561.56;;;19.24;65.25
71573;BME280;59408;51.032;9.410;2022-09-09T09:37:50;98559.66;;;19.13;65.04
71573;BME280;59408;51.032;9.410;2022-09-09T09:40:37;98562.75;;;19.23;66.63
71573;BME280;59408;51.032;9.410;2022-09-09T09:43:22;98568.06;;;19.03;66.39
71573;BME280;59408;51.032;9.410;2022-09-09T09:45:50;98561.16;;;19.70;64.16
71573;BME280;59408;51.032;9.410;2022-09-09T09:48:36;98564.59;;;20.15;63.18
71573;BME280;59408;51.032;9.410;2022-09-09T09:51:08;98562.91;;;19.90;62.12
71573;BME280;59408;51.032;9.410;2022-09-09T09:53:37;98555.81;;;20.23;62.12
71573;BME280;59408;51.032;9.410;2022-09-09T09:56:06;98555.44;;;20.21;60.48
71573;BME280;59408;51.032;9.410;2022-09-09T09:58:49;98553.84;;;19.86;60.45
71573;BME280;59408;51.032;9.410;2022-09-09T10:01:20;98552.41;;;20.09;60.11
71573;BME280;59408;51.032;9.410;2022-09-09T10:03:50;98557.78;;;20.23;60.02
71573;BME280;59408;51.032;9.410;2022-09-09T10:06:29;98549.16;;;20.17;59.81
71573;BME280;59408;51.032;9.410;2022-09-09T10:08:56;98562.53;;;19.88;60.85
71573;BME280;59408;51.032;9.410;2022-09-09T10:11:32;98568.75;;;19.62;62.78
71573;BME280;59408;51.032;9.410;2022-09-09T10:14:08;98567.38;;;19.81;63.48
71573;BME280;59408;51.032;9.410;2022-09-09T10:16:58;98560.72;;;19.75;63.41
71573;BME280;59408;51.032;9.410;2022-09-09T10:19:31;98565.78;;;19.80;63.21
71573;BME280;59408;51.032;9.410;2022-09-09T10:22:09;98563.00;;;19.83;62.91
71573;BME280;59408;51.032;9.410;2022-09-09T10:27:45;98561.97;;;19.22;63.88
71573;BME280;59408;51.032;9.410;2022-09-09T10:30:29;98563.66;;;19.57;62.59
71573;BME280;59408;51.032;9.410;2022-09-09T10:33:07;98555.09;;;19.82;62.36
71573;BME280;59408;51.032;9.410;2022-09-09T10:35:45;98549.84;;;19.91;61.06
71573;BME280;59408;51.032;9.410;2022-09-09T10:38:18;98547.09;;;19.91;62.43
71573;BME280;59408;51.032;9.410;2022-09-09T10:41:00;98553.19;;;19.75;62.75
71573;BME280;59408;51.032;9.410;2022-09-09T10:43:39;98549.00;;;19.94;61.84
71573;BME280;59408;51.032;9.410;2022-09-09T10:46:17;98543.69;;;20.10;60.45
71573;BME280;59408;51.032;9.410;2022-09-09T10:49:01;98531.97;;;20.60;59.54
71573;BME280;59408;51.032;9.410;2022-09-09T10:51:38;98539.44;;;20.90;58.24
71573;BME280;59408;51.032;9.410;2022-09-09T10:54:25;98546.03;;;20.46;58.50
71573;BME280;59408;51.032;9.410;2022-09-09T10:57:01;98547.19;;;20.14;58.47
71573;BME280;59408;51.032;9.410;2022-09-09T10:59:33;98530.09;;;20.23;59.83
71573;BME280;59408;51.032;9.410;2022-09-09T11:02:05;98538.81;;;21.06;56.81
71573;BME280;59408;51.032;9.410;2022-09-09T11:04:43;98525.41;;;21.90;56.11
71573;BME280;59408;51.032;9.410;2022-09-09T11:07:20;98526.91;;;22.14;53.82
71573;BME280;59408;51.032;9.410;2022-09-09T11:09:58;98536.00;;;21.95;52.20
71573;BME280;59408;51.032;9.410;2022-09-09T11:12:28;98523.84;;;21.89;52.62
71573;BME280;59408;51.032;9.410;2022-09-09T11:14:59;98524.69;;;21.43;53.47
71573;BME280;59408;51.032;9.410;2022-09-09T11:17:33;98517.63;;;20.92;54.99
71573;BME280;59408;51.032;9.410;2022-09-09T11:20:05;98518.78;;;20.41;55.82
71573;BME280;59408;51.032;9.410;2022-09-09T11:22:34;98520.75;;;20.10;56.39
71573;BME280;59408;51.032;9.410;2022-09-09T11:25:07;98510.47;;;20.10;57.28
71573;BME280;59408;51.032;9.410;2022-09-09T11:27:42;98502.13;;;21.21;54.94
71573;BME280;59408;51.032;9.410;2022-09-09T11:30:19;98506.34;;;21.49;52.31
71573;BME280;59408;51.032;9.410;2022-09-09T11:36:23;98505.34;;;22.02;51.52
71573;BME280;59408;51.032;9.410;2022-09-09T11:38:58;98509.47;;;21.51;51.92
71573;BME280;59408;51.032;9.410;2022-09-09T11:41:34;98492.88;;;21.28;51.72
71573;BME280;59408;51.032;9.410;2022-09-09T11:44:10;98516.41;;;20.93;51.28
71573;BME280;59408;51.032;9.410;2022-09-09T11:46:38;98513.56;;;20.46;53.20
71573;BME280;59408;51.032;9.410;2022-09-09T11:49:23;98513.34;;;20.34;54.01
71573;BME280;59408;51.032;9.410;2022-09-09T11:51:52;98512.56;;;20.33;53.89
71573;BME280;59408;51.032;9.410;2022-09-09T11:54:28;98527.44;;;21.66;52.37
71573;BME280;59408;51.032;9.410;2022-09-09T11:56:57;98528.63;;;21.89;52.67
71573;BME280;59408;51.032;9.410;2022-09-09T11:59:25;98541.25;;;21.70;51.25
71573;BME280;59408;51.032;9.410;2022-09-09T12:01:55;98529.69;;;21.05;52.40
71573;BME280;59408;51.032;9.410;2022-09-09T12:04:31;98531.75;;;21.24;53.80
71573;BME280;59408;51.032;9.410;2022-09-09T12:07:03;98554.97;;;22.00;50.40
71573;BME280;59408;51.032;9.410;2022-09-09T12:09:43;98547.00;;;22.02;49.09
71573;BME280;59408;51.032;9.410;2022-09-09T12:12:28;98555.34;;;22.58;47.82
71573;BME280;59408;51.032;9.410;2022-09-09T12:14:58;98544.28;;;22.74;46.87
71573;BME280;59408;51.032;9.410;2022-09-09T12:17:26;98554.53;;;22.77;46.47
71573;BME280;59408;51.032;9.410;2022-09-09T12:20:00;98554.41;;;22.09;47.89
71573;BME280;59408;51.032;9.410;2022-09-09T12:22:37;98560.22;;;22.54;48.22
71573;BME280;59408;51.032;9.410;2022-09-09T12:25:16;98561.78;;;23.07;48.24
71573;BME280;59408;51.032;9.410;2022-09-09T12:28:01;98550.03;;;23.16;46.48
71573;BME280;59408;51.032;9.410;2022-09-09T12:30:30;98553.94;;;22.50;46.90
71573;BME280;59408;51.032;9.410;2022-09-09T12:33:02;98543.44;;;22.94;47.13
71573;BME280;59408;51.032;9.410;2022-09-09T12:35:33;98545.25;;;23.33;46.32
71573;BME280;59408;51.032;9.410;2022-09-09T12:38:02;98546.78;;;23.66;45.00
71573;BME280;59408;51.032;9.410;2022-09-09T12:40:32;98525.91;;;24.16;44.63
71573;BME280;59408;51.032;9.410;2022-09-09T12:43:00;98535.44;;;24.44;45.15
71573;BME280;59408;51.032;9.410;2022-09-09T12:45:30;98530.69;;;24.69;44.14
71573;BME280;59408;51.032;9.410;2022-09-09T12:48:00;98524.91;;;24.77;43.86
71573;BME280;59408;51.032;9.410;2022-09-09T12:50:30;98534.88;;;25.25;42.89
71573;BME280;59408;51.032;9.410;2022-09-09T12:52:58;98535.94;;;24.93;43.78
71573;BME280;59408;51.032;9.410;2022-09-09T12:55:28;98535.31;;;25.23;42.05
71573;BME280;59408;51.032;9.410;2022-09-09T12:57:55;98533.09;;;24.42;42.98
71573;BME280;59408;51.032;9.410;2022-09-09T13:00:24;98517.84;;;24.59;42.32
71573;BME280;59408;51.032;9.410;2022-09-09T13:02:53;98516.47;;;25.15;42.01
71573;BME280;59408;51.032;9.410;2022-09-09T13:05:23;98526.47;;;25.50;40.67
71573;BME280;59408;51.032;9.410;2022-09-09T13:07:49;98519.66;;;25.51;40.46
71573;BME280;59408;51.032;9.410;2022-09-09T13:10:22;98521.88;;;25.56;40.37
71573;BME280;59408;51.032;9.410;2022-09-09T13:13:13;98525.13;;;24.82;41.73
71573;BME280;59408;51.032;9.410;2022-09-09T13:15:48;98511.09;;;25.33;41.30
71573;BME280;59408;51.032;9.410;2022-09-09T13:18:16;98515.47;;;25.34;41.80
71573;BME280;59408;51.032;9.410;2022-09-09T13:20:46;98505.31;;;25.27;42.04
71573;BME280;59408;51.032;9.410;2022-09-09T13:23:14;98513.69;;;25.27;40.25
71573;BME280;59408;51.032;9.410;2022-09-09T13:25:41;98502.66;;;24.98;41.32
71573;BME280;59408;51.032;9.410;2022-09-09T13:28:21;98518.25;;;25.21;41.38